Arab, Alabama
Current Conditions -  °F | °C
As of 4:15 PM on Sunday 21 Dec 2014 (Local Time) from K8A0 Reporting Station
Overcast Overcast  
Wind Chill: 10°   Ceiling: 1900
Heat Index: 10°   Visibility: 7mi
Dew Point:   Wind: 6mph
Humidity: 94%   Direction: 110°ESE
Pressure: 30.06"   Gusts: NA
Location:  34.32°N, 86.49°W
Report Text: K8A0 212215Z AUTO 11005KT 7SM OVC019 10/09 A3006 RMK AO2
Loading
Personal Weather Stations






























Interactive Weather Map New forecast layout! Learn more

10-Day Weather Forecast

Advertisements
Track Severe Weather on mobile